aviador You're here:

KCOU Decoded Metar

COLUMBIA in MO, USA
Report Time2018-02-20 12:54:00
UTC Time2018-02-20 13:55:18
Flight Rules vfr VFR
Wind180° at 13 kt
W.Decomp.*RWY 20: 12.0 kt HW 5.1 kt LCW
RWY 13: 8.9 kt HW 9.5 kt RCW
W.Rank180° ranks 2
Current wind is above 180° avg. (8.6)
Visibility9999 m
Phenomena:N/A
Clouds:Broken 037 Hf
Broken 045 Hf
Broken 055 Hf
Expected CloudBase > 1,600 ft AGL from Temp-Dew spread
Ceiling3,700 ft
Temp19°C (ISA +6)
Dew Point15°C (78% RH)
AAT16.0°C
QNH1010 hPa
Density Alt1,896 ft
Elevation889 ft
Report Wrong Elevation
Raw Report
KCOU 201254Z 18013KT 10SM BKN037 BKN045 BKN055 19/15 A2982 RMK AO2
SLP091 T01890150=

Extra information for KCOU:More info

Metar Taf Metar & Taf Last 4 Metars F.Rules Stats Wind Profile Meteogram Temp Stats Airport Information Weather charts Add Link Nearby VenuesMetar ALERT Operation Metar Decoded Social comments

AIRNAV info for KCOU